createdAt,value
2023-01-01T00:02:19.286Z,15.35
2023-01-01T00:04:47.624Z,15.34
2023-01-01T00:07:16.739Z,15.33
2023-01-01T00:10:02.071Z,15.31
2023-01-01T00:12:29.990Z,15.27
2023-01-01T00:14:57.630Z,15.21
2023-01-01T00:17:25.374Z,15.19
2023-01-01T00:19:53.035Z,15.20
2023-01-01T00:22:53.383Z,15.18
2023-01-01T00:25:13.990Z,15.15
2023-01-01T00:27:41.925Z,15.12
2023-01-01T00:30:11.428Z,15.17
2023-01-01T00:32:39.274Z,15.20
2023-01-01T00:35:07.329Z,15.23
2023-01-01T00:37:39.389Z,15.27
2023-01-01T00:40:09.890Z,15.25
2023-01-01T00:42:40.185Z,15.26
2023-01-01T00:45:09.059Z,15.23
2023-01-01T00:47:36.728Z,15.25
2023-01-01T00:50:04.764Z,15.24
2023-01-01T00:52:32.439Z,15.24
2023-01-01T00:55:01.485Z,15.24
2023-01-01T00:57:29.166Z,15.31
2023-01-01T00:59:56.794Z,15.29
2023-01-01T01:02:24.616Z,15.31
2023-01-01T01:04:52.549Z,15.30
2023-01-01T01:07:20.091Z,15.29
2023-01-01T01:09:47.773Z,15.33
2023-01-01T01:12:17.964Z,15.33
2023-01-01T01:14:46.938Z,15.31
2023-01-01T01:17:14.682Z,15.29
2023-01-01T01:19:42.395Z,15.29
2023-01-01T01:22:10.086Z,15.30
2023-01-01T01:24:37.755Z,15.27
2023-01-01T01:27:05.446Z,15.24
2023-01-01T01:29:34.475Z,15.24
2023-01-01T01:32:02.130Z,15.18
2023-01-01T01:34:29.789Z,14.98
2023-01-01T01:36:57.563Z,14.78
2023-01-01T01:39:25.226Z,14.65
2023-01-01T01:41:52.917Z,14.57
2023-01-01T01:44:54.426Z,14.52
2023-01-01T01:47:27.939Z,14.59
2023-01-01T01:50:00.380Z,14.62
2023-01-01T01:52:29.746Z,14.64
2023-01-01T01:55:00.459Z,14.64
2023-01-01T01:57:28.523Z,14.66
2023-01-01T01:59:58.895Z,14.66
2023-01-01T02:02:33.731Z,14.63
2023-01-01T02:05:01.646Z,14.65
2023-01-01T02:07:32.431Z,14.67
2023-01-01T02:10:01.290Z,14.67
2023-01-01T02:12:29.170Z,14.68
2023-01-01T02:14:58.094Z,14.64
2023-01-01T02:17:38.828Z,14.65
2023-01-01T02:20:23.826Z,14.63
2023-01-01T02:23:11.132Z,14.67
2023-01-01T02:25:50.021Z,14.63
2023-01-01T02:28:27.284Z,14.62
2023-01-01T02:30:57.490Z,14.65
2023-01-01T02:33:27.768Z,14.65
2023-01-01T02:35:59.633Z,14.64
2023-01-01T02:38:31.268Z,14.63
2023-01-01T02:41:03.613Z,14.62
2023-01-01T02:43:31.317Z,14.59
2023-01-01T02:46:00.413Z,14.60
2023-01-01T02:48:40.958Z,14.57
2023-01-01T02:51:18.773Z,14.58
2023-01-01T02:53:53.877Z,14.60
2023-01-01T02:56:34.702Z,14.57
2023-01-01T02:59:34.454Z,14.57
2023-01-01T03:02:11.054Z,14.56
2023-01-01T03:04:50.926Z,14.54
2023-01-01T03:07:24.973Z,14.53
2023-01-01T03:09:59.167Z,14.56
2023-01-01T03:12:39.802Z,14.56
2023-01-01T03:15:16.498Z,14.57
2023-01-01T03:17:50.999Z,14.53
2023-01-01T03:20:22.317Z,14.53
2023-01-01T03:22:52.910Z,14.54
2023-01-01T03:25:24.870Z,14.57
2023-01-01T03:27:57.358Z,14.53
2023-01-01T03:30:25.555Z,14.56
2023-01-01T03:33:01.440Z,14.61
2023-01-01T03:35:36.370Z,14.59
2023-01-01T03:38:06.628Z,14.62
2023-01-01T03:40:38.257Z,14.61
2023-01-01T03:43:12.834Z,14.63
2023-01-01T03:45:43.091Z,14.60
2023-01-01T03:48:12.883Z,14.62
2023-01-01T03:50:51.353Z,14.63
2023-01-01T03:53:28.946Z,14.66
2023-01-01T03:56:08.151Z,14.66
2023-01-01T03:58:43.613Z,14.65
2023-01-01T04:01:15.486Z,14.65
2023-01-01T04:03:44.690Z,14.64
2023-01-01T04:06:12.877Z,14.55
2023-01-01T04:08:40.688Z,14.29
2023-01-01T04:11:24.795Z,13.91
2023-01-01T04:13:52.459Z,13.62
2023-01-01T04:16:20.172Z,13.51
2023-01-01T04:18:49.313Z,13.48
2023-01-01T04:21:16.945Z,13.54
2023-01-01T04:23:44.638Z,13.58
2023-01-01T04:26:14.090Z,13.57
2023-01-01T04:28:42.370Z,13.51
2023-01-01T04:31:11.588Z,13.30
2023-01-01T04:33:39.879Z,13.06
2023-01-01T04:36:11.185Z,12.90
2023-01-01T04:38:39.399Z,12.80
2023-01-01T04:41:08.165Z,12.75
2023-01-01T04:43:35.871Z,12.68
2023-01-01T04:46:05.813Z,12.61
2023-01-01T04:48:36.042Z,12.58
2023-01-01T04:51:05.747Z,12.57
2023-01-01T04:53:35.826Z,12.58
2023-01-01T04:56:05.610Z,12.61
2023-01-01T04:58:33.896Z,12.64
2023-01-01T05:01:01.772Z,12.68
2023-01-01T05:03:29.778Z,12.71
2023-01-01T05:06:03.575Z,12.71
2023-01-01T05:08:31.777Z,12.73
2023-01-01T05:11:04.734Z,12.74
2023-01-01T05:13:32.808Z,12.75
2023-01-01T05:16:04.011Z,12.79
2023-01-01T05:18:31.891Z,12.82
2023-01-01T05:21:01.651Z,12.82
2023-01-01T05:23:29.338Z,12.85
2023-01-01T05:25:57.063Z,12.89
2023-01-01T05:28:26.478Z,12.91
2023-01-01T05:30:54.851Z,12.94
2023-01-01T05:33:22.539Z,12.95
2023-01-01T05:35:55.302Z,12.95
2023-01-01T05:38:22.953Z,12.98
2023-01-01T05:40:50.610Z,12.98
2023-01-01T05:43:18.613Z,13.00
2023-01-01T05:45:47.519Z,12.97
2023-01-01T05:48:15.218Z,12.99
2023-01-01T05:50:42.873Z,13.00
2023-01-01T05:53:10.529Z,12.99
2023-01-01T05:55:38.221Z,12.96
2023-01-01T05:58:05.886Z,12.97
2023-01-01T06:00:33.548Z,12.96
2023-01-01T06:03:02.547Z,12.97
2023-01-01T06:05:30.217Z,12.99
2023-01-01T06:07:57.872Z,12.98
2023-01-01T06:10:25.604Z,12.98
2023-01-01T06:12:54.731Z,12.95
2023-01-01T06:15:22.435Z,12.94
2023-01-01T06:17:50.086Z,12.97
2023-01-01T06:20:19.172Z,12.95
2023-01-01T06:22:46.858Z,12.94
2023-01-01T06:25:14.493Z,12.92
2023-01-01T06:27:42.155Z,12.91
2023-01-01T06:30:10.785Z,12.89
2023-01-01T06:32:38.506Z,12.85
2023-01-01T06:35:06.914Z,12.84
2023-01-01T06:37:35.948Z,12.80
2023-01-01T06:40:03.755Z,12.78
2023-01-01T06:42:33.968Z,12.74
2023-01-01T06:45:02.048Z,12.74
2023-01-01T06:47:29.736Z,12.72
2023-01-01T06:49:57.402Z,12.69
2023-01-01T06:52:25.131Z,12.67
2023-01-01T06:54:54.566Z,12.66
2023-01-01T06:57:22.240Z,12.63
2023-01-01T06:59:49.907Z,12.57
2023-01-01T07:02:17.716Z,12.57
2023-01-01T07:04:45.329Z,12.53
2023-01-01T07:07:13.008Z,12.53
2023-01-01T07:09:40.742Z,12.53
2023-01-01T07:12:09.942Z,12.49
2023-01-01T07:14:37.640Z,12.48
2023-01-01T07:17:05.727Z,12.43
2023-01-01T07:19:33.401Z,12.41
2023-01-01T07:22:01.144Z,12.39
2023-01-01T07:24:28.859Z,12.36
2023-01-01T07:26:56.562Z,12.37
2023-01-01T07:29:25.600Z,12.35
2023-01-01T07:31:53.308Z,12.33
2023-01-01T07:34:22.695Z,12.30
2023-01-01T07:36:50.784Z,12.28
2023-01-01T07:39:18.442Z,12.24
2023-01-01T07:41:46.204Z,12.20
2023-01-01T07:44:13.838Z,12.16
2023-01-01T07:46:42.954Z,12.11
2023-01-01T07:49:10.680Z,12.11
2023-01-01T07:51:38.338Z,12.06
2023-01-01T07:54:07.420Z,12.02
2023-01-01T07:56:36.231Z,11.98
2023-01-01T07:59:04.202Z,11.95
2023-01-01T08:01:32.026Z,11.91
2023-01-01T08:04:01.104Z,11.87
2023-01-01T08:06:28.821Z,11.82
2023-01-01T08:08:56.542Z,11.80
2023-01-01T08:11:24.251Z,11.77
2023-01-01T08:13:52.084Z,11.73
2023-01-01T08:16:19.844Z,11.69
2023-01-01T08:18:48.176Z,11.66
2023-01-01T08:21:17.245Z,11.65
2023-01-01T08:23:44.878Z,11.62
2023-01-01T08:26:15.427Z,11.60
2023-01-01T08:28:43.686Z,11.59
2023-01-01T08:31:11.387Z,11.61
2023-01-01T08:33:39.042Z,11.58
2023-01-01T08:36:07.177Z,11.56
2023-01-01T08:38:36.200Z,11.56
2023-01-01T08:41:03.887Z,11.58
2023-01-01T08:43:31.575Z,11.58
2023-01-01T08:45:59.261Z,11.56
2023-01-01T08:48:30.688Z,11.57
2023-01-01T08:51:01.117Z,11.56
2023-01-01T08:53:29.112Z,11.55
2023-01-01T08:55:58.601Z,11.52
2023-01-01T08:58:26.763Z,11.56
2023-01-01T09:00:54.828Z,11.57
2023-01-01T09:03:23.155Z,11.58
2023-01-01T09:05:50.954Z,11.58
2023-01-01T09:08:18.924Z,11.58
2023-01-01T09:10:46.625Z,11.57
2023-01-01T09:13:17.940Z,11.60
2023-01-01T09:15:47.239Z,11.63
2023-01-01T09:18:15.483Z,11.64
2023-01-01T09:20:43.462Z,11.65
2023-01-01T09:23:12.822Z,11.66
2023-01-01T09:25:41.091Z,11.70
2023-01-01T09:28:11.594Z,11.70
2023-01-01T09:30:40.730Z,11.74
2023-01-01T09:33:08.463Z,11.77
2023-01-01T09:35:38.447Z,11.80
2023-01-01T09:38:06.267Z,11.90
2023-01-01T09:40:50.894Z,12.00
2023-01-01T09:43:29.650Z,12.10
2023-01-01T09:46:02.210Z,12.19
2023-01-01T09:48:32.259Z,12.25
2023-01-01T09:51:01.395Z,12.30
2023-01-01T09:53:35.713Z,12.35
2023-01-01T09:56:05.024Z,12.47
2023-01-01T09:58:35.168Z,12.56
2023-01-01T10:01:10.535Z,12.66
2023-01-01T10:03:46.442Z,12.83
2023-01-01T10:06:21.958Z,12.92
2023-01-01T10:09:07.196Z,12.92
2023-01-01T10:11:47.230Z,12.89
2023-01-01T10:14:23.183Z,12.85
2023-01-01T10:16:56.572Z,12.85
2023-01-01T10:19:31.628Z,12.80
2023-01-01T10:22:04.758Z,12.74
2023-01-01T10:24:40.764Z,12.69
2023-01-01T10:27:08.430Z,12.72
2023-01-01T10:29:44.404Z,12.76
2023-01-01T10:32:29.046Z,12.79
2023-01-01T10:34:58.292Z,12.85
2023-01-01T10:37:31.603Z,12.79
2023-01-01T10:39:59.373Z,12.85
2023-01-01T10:42:27.243Z,12.99
2023-01-01T10:44:55.147Z,13.10
2023-01-01T10:47:30.066Z,13.20
2023-01-01T10:50:00.375Z,13.20
2023-01-01T10:52:32.607Z,13.24
2023-01-01T10:55:00.942Z,13.30
2023-01-01T10:57:34.626Z,13.30
2023-01-01T11:00:21.763Z,13.32
2023-01-01T11:03:12.195Z,13.33
2023-01-01T11:05:39.992Z,13.32
2023-01-01T11:08:19.630Z,13.23
2023-01-01T11:10:52.509Z,13.23
2023-01-01T11:13:21.679Z,13.26
2023-01-01T11:15:49.595Z,13.24
2023-01-01T11:18:21.923Z,13.19
2023-01-01T11:20:53.327Z,13.15
2023-01-01T11:23:30.777Z,13.10
2023-01-01T11:26:00.622Z,13.10
2023-01-01T11:28:31.304Z,13.12
2023-01-01T11:31:03.452Z,13.09
2023-01-01T11:33:35.048Z,13.06
2023-01-01T11:36:03.519Z,13.03
2023-01-01T11:38:31.436Z,12.96
2023-01-01T11:41:05.287Z,12.94
2023-01-01T11:43:39.319Z,12.92
2023-01-01T11:46:10.181Z,12.94
2023-01-01T11:48:43.240Z,12.93
2023-01-01T11:51:12.705Z,12.93
2023-01-01T11:53:42.290Z,12.89
2023-01-01T11:56:16.404Z,12.85
2023-01-01T11:58:52.104Z,12.85
2023-01-01T12:01:27.241Z,12.87
2023-01-01T12:04:02.265Z,12.89
2023-01-01T12:06:35.407Z,12.91
2023-01-01T12:09:18.341Z,12.97
2023-01-01T12:11:51.914Z,13.07
2023-01-01T12:14:32.380Z,13.18
2023-01-01T12:17:05.468Z,13.33
2023-01-01T12:19:42.315Z,13.39
2023-01-01T12:22:17.082Z,13.62
2023-01-01T12:24:46.212Z,13.89
2023-01-01T12:27:24.804Z,13.91
2023-01-01T12:30:12.809Z,13.92
2023-01-01T12:32:55.739Z,13.79
2023-01-01T12:35:37.697Z,13.70
2023-01-01T12:38:19.710Z,13.71
2023-01-01T12:40:55.725Z,13.70
2023-01-01T12:43:28.358Z,13.64
2023-01-01T12:46:24.201Z,13.62
2023-01-01T12:49:21.936Z,13.63
2023-01-01T12:52:02.995Z,13.69
2023-01-01T12:54:58.866Z,13.67
2023-01-01T12:57:32.969Z,13.69
2023-01-01T13:00:03.995Z,13.66
2023-01-01T13:02:35.903Z,13.62
2023-01-01T13:05:08.859Z,13.56
2023-01-01T13:07:42.158Z,13.55
2023-01-01T13:10:21.504Z,13.55
2023-01-01T13:12:50.301Z,13.53
2023-01-01T13:15:53.610Z,13.49
2023-01-01T13:18:25.517Z,13.53
2023-01-01T13:20:59.463Z,13.52
2023-01-01T13:23:48.780Z,13.52
2023-01-01T13:26:38.973Z,13.49
2023-01-01T13:29:44.458Z,13.49
2023-01-01T13:32:13.711Z,13.45
2023-01-01T13:35:03.067Z,13.40
2023-01-01T13:37:44.980Z,13.38
2023-01-01T13:41:00.256Z,13.30
2023-01-01T13:43:31.098Z,13.29
2023-01-01T13:46:13.831Z,13.24
2023-01-01T13:49:15.432Z,13.19
2023-01-01T13:52:18.459Z,13.18
2023-01-01T13:55:31.243Z,13.16
2023-01-01T13:58:33.320Z,13.14
2023-01-01T14:01:32.153Z,13.11
2023-01-01T14:04:01.546Z,13.10
2023-01-01T14:06:35.686Z,13.04
2023-01-01T14:09:07.996Z,13.00
2023-01-01T14:11:35.685Z,12.96
2023-01-01T14:14:03.485Z,12.96
2023-01-01T14:16:32.664Z,12.95
2023-01-01T14:19:03.445Z,12.91
2023-01-01T14:21:34.509Z,12.87
2023-01-01T14:24:04.816Z,12.86
2023-01-01T14:26:34.351Z,12.84
2023-01-01T14:29:07.016Z,12.82
2023-01-01T14:31:40.445Z,12.81
2023-01-01T14:34:15.577Z,12.80
2023-01-01T14:36:51.658Z,12.78
2023-01-01T14:39:28.047Z,12.78
2023-01-01T14:41:58.847Z,12.77
2023-01-01T14:44:34.052Z,12.75
2023-01-01T14:47:04.390Z,12.76
2023-01-01T14:49:35.766Z,12.74
2023-01-01T14:52:08.269Z,12.72
2023-01-01T14:54:39.408Z,12.72
2023-01-01T14:57:11.718Z,12.68
2023-01-01T14:59:47.158Z,12.68
2023-01-01T15:02:17.668Z,12.68
2023-01-01T15:04:45.664Z,12.67
2023-01-01T15:07:22.816Z,12.64
2023-01-01T15:09:51.241Z,12.63
2023-01-01T15:12:20.195Z,12.60
2023-01-01T15:14:49.432Z,12.59
2023-01-01T15:17:21.906Z,12.56
2023-01-01T15:20:02.677Z,12.53
2023-01-01T15:22:33.780Z,12.50
2023-01-01T15:25:02.233Z,12.48
2023-01-01T15:27:32.165Z,12.45
2023-01-01T15:30:00.482Z,12.43
2023-01-01T15:32:32.069Z,12.40
2023-01-01T15:35:02.893Z,12.37
2023-01-01T15:37:35.019Z,12.34
2023-01-01T15:40:24.724Z,12.30
2023-01-01T15:43:14.381Z,12.29
2023-01-01T15:45:44.023Z,12.28
2023-01-01T15:48:22.076Z,12.25
2023-01-01T15:51:11.818Z,12.24
2023-01-01T15:53:52.150Z,12.23
2023-01-01T15:56:21.833Z,12.17
2023-01-01T15:58:56.266Z,12.18
2023-01-01T16:01:27.197Z,12.15
2023-01-01T16:04:03.334Z,12.12
2023-01-01T16:06:31.406Z,12.11
2023-01-01T16:08:59.087Z,12.10
2023-01-01T16:11:26.719Z,12.09
2023-01-01T16:13:54.480Z,12.09
2023-01-01T16:16:27.407Z,12.10
2023-01-01T16:18:58.463Z,12.11
2023-01-01T16:21:28.170Z,12.15
2023-01-01T16:23:56.396Z,12.15
2023-01-01T16:26:24.158Z,12.17
2023-01-01T16:28:51.968Z,12.18
2023-01-01T16:31:22.861Z,12.18
2023-01-01T16:33:55.246Z,12.18
2023-01-01T16:36:24.632Z,12.18
2023-01-01T16:38:52.346Z,12.19
2023-01-01T16:41:20.390Z,12.20
2023-01-01T16:43:48.905Z,12.19
2023-01-01T16:46:16.987Z,12.19
2023-01-01T16:48:44.973Z,12.19
2023-01-01T16:51:18.999Z,12.18
2023-01-01T16:53:48.644Z,12.17
2023-01-01T16:56:17.155Z,12.19
2023-01-01T16:58:50.424Z,12.20
2023-01-01T17:01:19.348Z,12.21
2023-01-01T17:03:47.236Z,12.20
2023-01-01T17:06:15.223Z,12.20
2023-01-01T17:08:42.743Z,12.17
2023-01-01T17:11:14.098Z,12.18
2023-01-01T17:13:41.961Z,12.17
2023-01-01T17:16:10.164Z,12.18
2023-01-01T17:21:26.123Z,12.19
2023-01-01T17:23:54.359Z,12.19
2023-01-01T17:26:25.669Z,12.17
2023-01-01T17:29:00.278Z,12.16
2023-01-01T17:31:29.192Z,12.16
2023-01-01T17:33:57.748Z,12.15
2023-01-01T17:36:27.070Z,12.14
2023-01-01T17:38:55.238Z,12.12
2023-01-01T17:41:24.850Z,12.10
2023-01-01T17:43:52.902Z,12.05
2023-01-01T17:46:22.766Z,12.04
2023-01-01T17:48:51.097Z,12.01
2023-01-01T17:51:20.140Z,11.98
2023-01-01T17:53:48.418Z,11.94
2023-01-01T17:56:18.117Z,11.88
2023-01-01T17:58:48.437Z,11.84
2023-01-01T18:01:28.422Z,11.75
2023-01-01T18:03:58.157Z,11.66
2023-01-01T18:06:25.971Z,11.60
2023-01-01T18:08:57.626Z,11.50
2023-01-01T18:11:25.447Z,11.43
2023-01-01T18:13:54.494Z,11.40
2023-01-01T18:16:22.613Z,11.37
2023-01-01T18:18:50.505Z,11.35
2023-01-01T18:21:21.763Z,11.34
2023-01-01T18:23:50.938Z,11.31
2023-01-01T18:26:19.303Z,11.24
2023-01-01T18:28:51.522Z,11.22
2023-01-01T18:31:21.091Z,11.18
2023-01-01T18:33:48.974Z,11.18
2023-01-01T18:36:18.626Z,11.15
2023-01-01T18:38:54.376Z,11.12
2023-01-01T18:41:40.508Z,11.10
2023-01-01T18:44:18.838Z,11.06
2023-01-01T18:46:53.683Z,11.03
2023-01-01T18:49:23.789Z,11.03
2023-01-01T18:51:55.175Z,11.00
2023-01-01T18:54:23.210Z,10.98
2023-01-01T18:56:51.218Z,10.98
2023-01-01T18:59:22.575Z,10.95
2023-01-01T19:01:52.060Z,10.92
2023-01-01T19:04:21.238Z,10.91
2023-01-01T19:06:48.911Z,10.91
2023-01-01T19:09:21.531Z,10.91
2023-01-01T19:11:49.631Z,10.88
2023-01-01T19:14:19.772Z,10.88
2023-01-01T19:16:49.411Z,10.87
2023-01-01T19:19:21.174Z,10.86
2023-01-01T19:21:52.119Z,10.86
2023-01-01T19:24:23.059Z,10.84
2023-01-01T19:26:54.217Z,10.84
2023-01-01T19:29:24.208Z,10.84
2023-01-01T19:31:53.636Z,10.83
2023-01-01T19:34:24.132Z,10.83
2023-01-01T19:36:52.406Z,10.81
2023-01-01T19:39:20.315Z,10.82
2023-01-01T19:41:47.839Z,10.83
2023-01-01T19:44:21.368Z,10.78
2023-01-01T19:46:49.265Z,10.78
2023-01-01T19:49:17.064Z,10.77
2023-01-01T19:51:46.147Z,10.75
2023-01-01T19:54:13.877Z,10.75
2023-01-01T19:56:41.745Z,10.75
2023-01-01T19:59:09.439Z,10.75
2023-01-01T20:01:37.504Z,10.75
2023-01-01T20:04:05.877Z,10.75
2023-01-01T20:06:36.312Z,10.75
2023-01-01T20:09:05.620Z,10.73
2023-01-01T20:11:33.375Z,10.72
2023-01-01T20:14:01.060Z,10.70
2023-01-01T20:16:28.830Z,10.69
2023-01-01T20:18:56.566Z,10.67
2023-01-01T20:21:41.675Z,10.64
2023-01-01T20:24:11.330Z,10.65
2023-01-01T20:26:39.056Z,10.63
2023-01-01T20:29:21.967Z,10.64
2023-01-01T20:31:58.101Z,10.63
2023-01-01T20:34:27.006Z,10.61
2023-01-01T20:37:12.031Z,10.61
2023-01-01T20:39:41.116Z,10.59
2023-01-01T20:42:08.824Z,10.59
2023-01-01T20:44:36.790Z,10.57
2023-01-01T20:47:04.412Z,10.60
2023-01-01T20:49:32.139Z,10.55
2023-01-01T20:51:59.867Z,10.55
2023-01-01T20:54:27.630Z,10.53
2023-01-01T20:56:56.682Z,10.55
2023-01-01T20:59:35.292Z,10.54
2023-01-01T21:02:04.297Z,10.55
2023-01-01T21:04:32.249Z,10.54
2023-01-01T21:06:59.955Z,10.52
2023-01-01T21:09:27.629Z,10.54
2023-01-01T21:11:56.677Z,10.50
2023-01-01T21:14:25.669Z,10.50
2023-01-01T21:16:54.899Z,10.47
2023-01-01T21:19:26.716Z,10.47
2023-01-01T21:21:57.227Z,10.49
2023-01-01T21:24:27.946Z,10.51
2023-01-01T21:27:06.618Z,10.49
2023-01-01T21:29:34.948Z,10.51
2023-01-01T21:32:14.270Z,10.48
2023-01-01T21:34:43.685Z,10.48
2023-01-01T21:37:15.530Z,10.47
2023-01-01T21:39:43.432Z,10.46
2023-01-01T21:42:23.898Z,10.46
2023-01-01T21:44:57.100Z,10.45
2023-01-01T21:47:26.714Z,10.44
2023-01-01T21:49:57.139Z,10.43
2023-01-01T21:52:26.338Z,10.43
2023-01-01T21:54:55.682Z,10.43
2023-01-01T21:57:25.639Z,10.42
2023-01-01T21:59:54.165Z,10.43
2023-01-01T22:02:36.654Z,10.41
2023-01-01T22:05:28.162Z,10.41
2023-01-01T22:07:58.997Z,10.41
2023-01-01T22:10:36.192Z,10.40
2023-01-01T22:13:15.777Z,10.40
2023-01-01T22:15:44.700Z,10.41
2023-01-01T22:18:20.486Z,10.41
2023-01-01T22:20:48.469Z,10.42
2023-01-01T22:23:32.801Z,10.45
2023-01-01T22:26:00.512Z,10.41
2023-01-01T22:28:37.951Z,10.40
2023-01-01T22:31:05.934Z,10.42
2023-01-01T22:33:37.005Z,10.45
2023-01-01T22:36:14.132Z,10.43
2023-01-01T22:38:42.183Z,10.45
2023-01-01T22:41:10.733Z,10.47
2023-01-01T22:43:41.674Z,10.55
2023-01-01T22:46:16.018Z,10.57
2023-01-01T22:48:43.777Z,10.64
2023-01-01T22:51:18.096Z,10.65
2023-01-01T22:53:46.031Z,10.63
2023-01-01T22:56:13.883Z,10.64
2023-01-01T22:58:42.931Z,10.66
2023-01-01T23:01:10.632Z,10.70
2023-01-01T23:03:38.394Z,10.70
2023-01-01T23:06:06.298Z,10.72
2023-01-01T23:08:33.969Z,10.74
2023-01-01T23:11:02.567Z,10.74
2023-01-01T23:13:47.623Z,10.75
2023-01-01T23:16:16.732Z,10.73
2023-01-01T23:18:44.416Z,10.73
2023-01-01T23:21:15.319Z,10.71
2023-01-01T23:23:44.347Z,10.69
2023-01-01T23:26:13.925Z,10.71
2023-01-01T23:28:41.739Z,10.69
2023-01-01T23:31:13.345Z,10.69
2023-01-01T23:33:42.815Z,10.69
2023-01-01T23:36:10.706Z,10.69
2023-01-01T23:38:39.688Z,10.69
2023-01-01T23:41:07.386Z,10.72
2023-01-01T23:43:39.394Z,10.75
2023-01-01T23:46:10.969Z,10.75
2023-01-01T23:48:38.490Z,10.80
2023-01-01T23:51:07.781Z,10.78
2023-01-01T23:53:35.615Z,10.80
2023-01-01T23:56:03.363Z,10.81
2023-01-01T23:58:30.985Z,10.87
